Hungerford, United Kingdom
Current Conditions -  °F | °C
As of 7:50 AM on Monday 24 Nov 2014 (Local Time) from EGVP Reporting Station
Light Fog Light Fog  
Wind Chill: 32°   Ceiling: 25000
Heat Index: 32°   Visibility: 6mi
Dew Point: 32°   Wind: 1mph
Humidity: 100%   Direction: 340°NNW
Pressure: 30.3"   Gusts: NA
Location:  51.42°N, 1.52°W
Report Text: EGVP 240750Z 34001KT 9999 MIFG SCT200 BKN250 00/M00 Q1026 BLU NOSIG
Loading
Personal Weather Stations






























Interactive Weather Map New forecast layout! Learn more

10-Day Weather Forecast

Advertisements
Track Severe Weather on mobile